This is the latest recevied weather packets stored in our database for station/object KI6PPU. If no packets are shown the sender has not sent any weather packets the latest 10 day(s).
| Time | Temp. | Humidity | Pressure | Rain* | Wind** | Luminosity | Snow |
|---|---|---|---|---|---|---|---|
| 1777438805 | 10.56° C | 85% | 1020.9 hPa | 0 mm | - | 0 W/m² | - |
| 1777438502 | 11.11° C | 84% | 1021 hPa | 0 mm | - | 0 W/m² | - |
| 1777438198 | 11.11° C | 84% | 1020.7 hPa | 0 mm | - | 0 W/m² | - |
| 1777437893 | 11.67° C | 82% | 1021 hPa | 0 mm | - | 0 W/m² | - |
| 1777437590 | 11.67° C | 83% | 1021 hPa | 0 mm | - | 0 W/m² | - |
| 1777437287 | 11.11° C | 84% | 1021 hPa | 0 mm | - | 0 W/m² | - |
| 1777436983 | 11.11° C | 84% | 1020.9 hPa | 0 mm | - | 0 W/m² | - |
| 1777436680 | 11.11° C | 83% | 1020.9 hPa | 0 mm | - | 0 W/m² | - |
| 1777436376 | 11.67° C | 82% | 1020.9 hPa | 0 mm | - | 0 W/m² | - |
| 1777436072 | 11.67° C | 80% | 1021 hPa | 0 mm | - | 0 W/m² | - |
| 1777435769 | 12.22° C | 80% | 1020.8 hPa | 0 mm | - | 0 W/m² | - |
| 1777435465 | 12.78° C | 78% | 1020.7 hPa | 0 mm | - | 0 W/m² | - |
| 1777435161 | 12.78° C | 78% | 1020.8 hPa | 0 mm | - | 0 W/m² | - |
| 1777434856 | 13.33° C | 76% | 1020.9 hPa | 0 mm | - | 0 W/m² | - |
| 1777434555 | 13.89° C | 75% | 1020.9 hPa | 0 mm | - | 0 W/m² | - |
| 1777434252 | 14.44° C | 72% | 1020.7 hPa | 0 mm | - | 0 W/m² | - |
| 1777433949 | 14.44° C | 70% | 1020.9 hPa | 0 mm | - | 0 W/m² | - |
| 1777433646 | 14.44° C | 71% | 1020.7 hPa | 0 mm | - | 0 W/m² | - |
| 1777433341 | 14.44° C | 73% | 1020.7 hPa | 0 mm | - | 0 W/m² | - |
| 1777433037 | 15° C | 69% | 1020.7 hPa | 0 mm | - | 0 W/m² | - |
| 1777432733 | 15.56° C | 67% | 1020.6 hPa | 0 mm | - | 0 W/m² | - |
| 1777432429 | 15.56° C | 67% | 1020.6 hPa | 0 mm | - | 0 W/m² | - |
| 1777432124 | 15.56° C | 65% | 1020.6 hPa | 0 mm | - | 0 W/m² | - |
| 1777431819 | 15.56° C | 66% | 1020.8 hPa | 0 mm | - | 0 W/m² | - |
| 1777431516 | 15° C | 69% | 1020.7 hPa | 0 mm | - | 0 W/m² | - |
* Rain latest hour (hover to see other rain measurements)
** Current wind speed in m/s (hover to see current wind gust speed)